Time;durP1;ratioP1;P1;durP2;ratioP2;P2;SDS_P1;SDS_P2;PMS_P1;PMS_P2;Temp;Humidity;BMP_temperature;BMP_pressure;BME280_temperature;BME280_humidity;BME280_pressure;Samples;Min_cycle;Max_cycle;Signal;HPM_P1;HPM_P2
2021/03/11 00:00:36;;;;;;;46.38;23.60;;;;;;;-143.98;100.00;68091.63;5053739;28;20094;-87
2021/03/11 00:03:06;;;;;;;41.75;22.67;;;;;;;-143.98;100.00;68091.63;5063416;28;20060;-86
2021/03/11 00:05:34;;;;;;;55.38;26.63;;;;;;;-143.98;100.00;68091.63;5047842;28;20063;-88
2021/03/11 00:08:02;;;;;;;45.55;24.60;;;;;;;-143.98;100.00;68091.63;5049311;28;20144;-87
2021/03/11 00:10:30;;;;;;;49.35;23.88;;;;;;;-143.98;100.00;68091.63;5063593;28;20084;-88
2021/03/11 00:13:00;;;;;;;52.58;24.67;;;;;;;-143.98;100.00;68091.63;5052494;28;20060;-87
2021/03/11 00:15:34;;;;;;;46.60;25.15;;;;;;;-143.98;100.00;68091.63;5046642;28;20048;-88
2021/03/11 00:18:01;;;;;;;54.20;27.70;;;;;;;-143.98;100.00;68091.63;5055808;28;20074;-89
2021/03/11 00:20:35;;;;;;;53.00;26.58;;;;;;;-143.98;100.00;68091.63;5055647;28;20045;-87
2021/03/11 00:23:02;;;;;;;44.17;22.33;;;;;;;-143.98;100.00;68091.63;5069664;28;20064;-86
2021/03/11 00:25:42;;;;;;;49.75;24.70;;;;;;;-143.98;100.00;68091.63;5111206;28;20048;-85
2021/03/11 00:28:10;;;;;;;48.35;24.85;;;;;;;-143.98;100.00;68091.63;5059083;28;20044;-85
2021/03/11 00:30:36;;;;;;;43.67;24.20;;;;;;;-143.98;100.00;68091.63;5077047;28;20059;-86
2021/03/11 00:33:03;;;;;;;45.90;23.60;;;;;;;-143.98;100.00;68091.63;5077804;28;20111;-88
2021/03/11 00:35:29;;;;;;;47.05;23.17;;;;;;;-143.98;100.00;68091.63;5091925;28;20097;-86
2021/03/11 00:37:59;;;;;;;51.58;23.95;;;;;;;-143.98;100.00;68091.63;5076457;28;20078;-86
2021/03/11 00:40:28;;;;;;;44.72;23.48;;;;;;;-143.98;100.00;68091.63;5091817;28;20057;-86
2021/03/11 00:42:54;;;;;;;51.05;25.20;;;;;;;-143.98;100.00;68091.63;5092549;28;20052;-86
2021/03/11 00:45:21;;;;;;;44.95;25.42;;;;;;;-143.98;100.00;68091.63;5091564;28;20045;-86
2021/03/11 00:47:47;;;;;;;50.97;25.38;;;;;;;-143.98;100.00;68091.63;5107747;28;20052;-86
2021/03/11 00:54:44;;;;;;;47.97;23.63;;;;;;;-143.98;100.00;68091.63;4957827;28;20491;-86
2021/03/11 00:57:11;;;;;;;50.05;24.52;;;;;;;-143.98;100.00;68091.63;5020199;28;20053;-86
2021/03/11 00:59:40;;;;;;;50.22;23.58;;;;;;;-143.98;100.00;68091.63;5035327;28;20081;-86
2021/03/11 01:02:06;;;;;;;49.88;25.50;;;;;;;-143.98;100.00;68091.63;5017358;28;20049;-86
2021/03/11 01:04:32;;;;;;;55.20;27.90;;;;;;;-143.98;100.00;68091.63;5046805;28;20083;-86
2021/03/11 01:06:58;;;;;;;54.95;27.13;;;;;;;-143.98;100.00;68091.63;5059923;28;20052;-87
2021/03/11 01:09:25;;;;;;;68.57;28.60;;;;;;;-143.98;100.00;68091.63;5093452;28;20079;-86
2021/03/11 01:11:54;;;;;;;64.45;29.05;;;;;;;-143.98;100.00;68091.63;5093442;28;20056;-86
2021/03/11 01:14:25;;;;;;;62.45;29.67;;;;;;;-143.98;100.00;68091.63;5106942;28;20446;-86
2021/03/11 01:16:52;;;;;;;53.08;27.67;;;;;;;-143.98;100.00;68091.63;5076165;28;20515;-85
2021/03/11 01:19:27;;;;;;;52.47;28.23;;;;;;;-143.98;100.00;68091.63;5074464;28;20091;-85
2021/03/11 01:21:53;;;;;;;61.63;29.88;;;;;;;-143.98;100.00;68091.63;5074415;28;20054;-85
2021/03/11 01:24:20;;;;;;;58.03;28.00;;;;;;;-143.98;100.00;68091.63;5078490;28;20082;-85
2021/03/11 01:26:47;;;;;;;56.33;28.80;;;;;;;-143.98;100.00;68091.63;5095701;28;20117;-87
2021/03/11 01:29:24;;;;;;;56.55;28.20;;;;;;;-143.98;100.00;68091.63;5061928;28;20105;-88
2021/03/11 01:31:50;;;;;;;55.88;29.30;;;;;;;-143.98;100.00;68091.63;5095911;28;20032;-89
2021/03/11 01:34:22;;;;;;;55.03;28.85;;;;;;;-143.98;100.00;68091.63;5096615;28;20044;-89
2021/03/11 01:36:48;;;;;;;54.45;28.88;;;;;;;-143.98;100.00;68091.63;5086379;28;20058;-88
2021/03/11 01:39:14;;;;;;;60.35;29.20;;;;;;;-143.98;100.00;68091.63;5065465;28;20087;-88
2021/03/11 01:41:47;;;;;;;56.30;28.60;;;;;;;-143.98;100.00;68091.63;5068374;28;20044;-88
2021/03/11 01:44:13;;;;;;;56.42;27.60;;;;;;;-143.98;100.00;68091.63;5095367;28;20115;-87
2021/03/11 01:46:39;;;;;;;50.75;27.15;;;;;;;-143.98;100.00;68091.63;5079801;28;20059;-86
2021/03/11 01:49:06;;;;;;;66.35;30.67;;;;;;;-143.98;100.00;68091.63;5083254;28;20052;-86
2021/03/11 01:51:37;;;;;;;65.85;31.88;;;;;;;-143.98;100.00;68091.63;5083622;28;20397;-86
2021/03/11 01:54:03;;;;;;;56.08;29.48;;;;;;;-143.98;100.00;68091.63;5083518;28;20112;-86
2021/03/11 01:56:33;;;;;;;62.25;31.00;;;;;;;-143.98;100.00;68091.63;5080357;28;20036;-85
2021/03/11 01:58:59;;;;;;;52.60;25.98;;;;;;;-143.98;100.00;68091.63;5082459;28;20060;-85
2021/03/11 02:01:25;;;;;;;56.67;28.77;;;;;;;-143.98;100.00;68091.63;5081798;28;20309;-85
2021/03/11 02:03:52;;;;;;;58.75;28.80;;;;;;;-143.98;100.00;68091.63;5082503;28;20075;-84
2021/03/11 02:06:19;;;;;;;55.80;29.67;;;;;;;-143.98;100.00;68091.63;5066518;28;20423;-85
2021/03/11 02:08:47;;;;;;;55.58;28.75;;;;;;;-143.98;100.00;68091.63;5066398;28;20063;-84
2021/03/11 02:11:21;;;;;;;52.90;27.88;;;;;;;-143.98;100.00;68091.63;5065571;28;20334;-85
2021/03/11 02:14:04;;;;;;;50.95;27.92;;;;;;;-143.98;100.00;68091.63;5084743;28;20086;-85
2021/03/11 02:16:44;;;;;;;57.53;28.17;;;;;;;-143.98;100.00;68091.63;5084190;28;20409;-86
2021/03/11 02:19:22;;;;;;;47.45;25.10;;;;;;;-143.98;100.00;68091.63;5085222;28;20116;-88
2021/03/11 02:22:06;;;;;;;52.42;26.45;;;;;;;-143.98;100.00;68091.63;5102330;28;20056;-89
2021/03/11 02:24:59;;;;;;;54.05;27.42;;;;;;;-143.98;100.00;68091.63;5100821;28;20040;-86
2021/03/11 02:28:03;;;;;;;49.95;26.30;;;;;;;-143.98;100.00;68091.63;5074822;28;20101;-87
2021/03/11 02:30:30;;;;;;;45.08;23.10;;;;;;;-143.98;100.00;68091.63;5100734;28;20319;-86
2021/03/11 02:32:57;;;;;;;51.22;27.45;;;;;;;-143.98;100.00;68091.63;5066761;28;20048;-88
2021/03/11 02:35:25;;;;;;;45.35;26.40;;;;;;;-143.98;100.00;68091.63;5067091;28;20481;-88
2021/03/11 02:37:52;;;;;;;46.60;27.33;;;;;;;-143.98;100.00;68091.63;5067196;28;20048;-88
2021/03/11 02:40:28;;;;;;;54.10;28.23;;;;;;;-143.98;100.00;68091.63;5065855;28;20056;-88
2021/03/11 02:42:55;;;;;;;50.38;26.42;;;;;;;-143.98;100.00;68091.63;5065026;28;20044;-87
2021/03/11 02:45:28;;;;;;;44.38;23.55;;;;;;;-143.98;100.00;68091.63;5065633;28;20416;-86
2021/03/11 02:47:56;;;;;;;53.80;26.40;;;;;;;-143.98;100.00;68091.63;5065138;28;20143;-87
2021/03/11 02:50:23;;;;;;;46.25;24.25;;;;;;;-143.98;100.00;68091.63;5065866;28;20108;-87
2021/03/11 02:52:51;;;;;;;48.60;27.88;;;;;;;-143.98;100.00;68091.63;5100693;28;20051;-87
2021/03/11 02:55:22;;;;;;;53.65;28.00;;;;;;;-143.98;100.00;68091.63;5066764;28;20086;-87
2021/03/11 02:57:51;;;;;;;53.28;28.73;;;;;;;-143.98;100.00;68091.63;5066483;28;20052;-87
2021/03/11 03:00:23;;;;;;;50.35;27.63;;;;;;;-143.98;100.00;68091.63;5082973;28;20400;-88
2021/03/11 03:02:50;;;;;;;51.22;26.40;;;;;;;-143.98;100.00;68091.63;5082399;28;20060;-87
2021/03/11 03:05:19;;;;;;;53.17;28.58;;;;;;;-143.98;100.00;68091.63;5066487;28;20048;-87
2021/03/11 03:07:49;;;;;;;49.38;27.90;;;;;;;-143.98;100.00;68091.63;5083602;28;20087;-87
2021/03/11 03:10:17;;;;;;;50.40;26.67;;;;;;;-143.98;100.00;68091.63;5081888;28;20058;-87
2021/03/11 03:12:45;;;;;;;52.00;27.35;;;;;;;-143.98;100.00;68091.63;5065166;28;20112;-87
2021/03/11 03:15:13;;;;;;;52.80;28.13;;;;;;;-143.98;100.00;68091.63;5081984;28;20074;-87
2021/03/11 03:17:44;;;;;;;51.63;28.20;;;;;;;-143.98;100.00;68091.63;5079975;28;20063;-87
2021/03/11 03:20:18;;;;;;;51.22;27.25;;;;;;;-143.98;100.00;68091.63;5064143;28;20331;-87
2021/03/11 03:22:48;;;;;;;53.13;28.80;;;;;;;-143.98;100.00;68091.63;5059621;28;20064;-88
2021/03/11 03:25:15;;;;;;;50.88;26.38;;;;;;;-143.98;100.00;68091.63;5058967;28;20048;-88
2021/03/11 03:27:42;;;;;;;53.75;28.35;;;;;;;-143.98;100.00;68091.63;5095850;28;20210;-88
2021/03/11 03:30:14;;;;;;;54.83;27.50;;;;;;;-143.98;100.00;68091.63;5077943;28;20060;-88
2021/03/11 03:32:41;;;;;;;53.47;27.13;;;;;;;-143.98;100.00;68091.63;5078621;28;20300;-87
2021/03/11 03:35:12;;;;;;;54.85;28.58;;;;;;;-143.98;100.00;68091.63;5077690;28;20394;-87
2021/03/11 03:37:39;;;;;;;58.10;26.50;;;;;;;-143.98;100.00;68091.63;5079215;28;20135;-87
2021/03/11 03:40:08;;;;;;;52.05;28.25;;;;;;;-143.98;100.00;68091.63;5093813;28;20121;-87
2021/03/11 03:42:38;;;;;;;46.45;25.13;;;;;;;-143.98;100.00;68091.63;5094332;28;20051;-87
2021/03/11 03:45:06;;;;;;;40.55;21.73;;;;;;;-143.98;100.00;68091.63;5093992;28;20048;-86
2021/03/11 03:47:33;;;;;;;46.20;24.88;;;;;;;-143.98;100.00;68091.63;5094562;28;20056;-87
2021/03/11 03:49:59;;;;;;;48.97;25.33;;;;;;;-143.98;100.00;68091.63;5079071;28;20324;-87
2021/03/11 03:52:26;;;;;;;49.53;26.25;;;;;;;-143.98;100.00;68091.63;5061099;28;20059;-87
2021/03/11 03:54:53;;;;;;;57.67;27.35;;;;;;;-143.98;100.00;68091.63;5095109;28;20079;-87
2021/03/11 03:57:21;;;;;;;47.38;24.98;;;;;;;-143.98;100.00;68091.63;5076945;28;20071;-87
2021/03/11 03:59:51;;;;;;;44.90;24.60;;;;;;;-143.98;100.00;68091.63;5077640;28;20252;-88
2021/03/11 04:02:18;;;;;;;49.78;26.33;;;;;;;-143.98;100.00;68091.63;5076925;28;20371;-88
2021/03/11 04:04:49;;;;;;;45.30;24.63;;;;;;;-143.98;100.00;68091.63;5061782;28;20131;-87
2021/03/11 04:07:25;;;;;;;50.55;25.33;;;;;;;-143.98;100.00;68091.63;5061645;28;20044;-87
2021/03/11 04:09:54;;;;;;;41.58;24.42;;;;;;;-143.98;100.00;68091.63;5066133;28;20044;-87
2021/03/11 04:12:24;;;;;;;40.33;23.58;;;;;;;-143.98;100.00;68091.63;5069292;28;20131;-87
2021/03/11 04:14:51;;;;;;;46.53;24.50;;;;;;;-143.98;100.00;68091.63;5085893;28;20103;-87
2021/03/11 04:17:17;;;;;;;36.45;20.88;;;;;;;-143.98;100.00;68091.63;5086707;28;20229;-87
2021/03/11 04:19:44;;;;;;;38.80;22.15;;;;;;;-143.98;100.00;68091.63;5066610;28;20052;-87
2021/03/11 04:22:14;;;;;;;43.55;22.27;;;;;;;-143.98;100.00;68091.63;5063133;28;20134;-88
2021/03/11 04:24:41;;;;;;;34.90;19.92;;;;;;;-143.98;100.00;68091.63;5078749;28;20048;-88
2021/03/11 04:27:08;;;;;;;37.88;21.75;;;;;;;-143.98;100.00;68091.63;5078139;28;20052;-87
2021/03/11 04:29:35;;;;;;;36.20;20.23;;;;;;;-143.98;100.00;68091.63;5094001;28;20045;-88
2021/03/11 04:32:04;;;;;;;36.75;21.33;;;;;;;-143.98;100.00;68091.63;5093113;28;20048;-87
2021/03/11 04:34:33;;;;;;;37.30;21.10;;;;;;;-143.98;100.00;68091.63;5111741;28;20303;-87
2021/03/11 04:36:59;;;;;;;35.35;19.70;;;;;;;-143.98;100.00;68091.63;5094617;28;20101;-87
2021/03/11 04:39:25;;;;;;;36.83;20.83;;;;;;;-143.98;100.00;68091.63;5096123;28;20056;-87
2021/03/11 04:41:53;;;;;;;35.13;19.33;;;;;;;-143.98;100.00;68091.63;5094775;28;20391;-88
2021/03/11 04:44:25;;;;;;;31.92;16.85;;;;;;;-143.98;100.00;68091.63;5096312;28;20048;-88
2021/03/11 04:47:07;;;;;;;36.13;20.33;;;;;;;-143.98;100.00;68091.63;5075290;28;20406;-87
2021/03/11 04:49:36;;;;;;;31.40;19.15;;;;;;;-143.98;100.00;68091.63;5095492;28;20056;-87
2021/03/11 04:52:02;;;;;;;30.95;17.65;;;;;;;-143.98;100.00;68091.63;5076225;28;20079;-89
2021/03/11 04:54:33;;;;;;;33.22;17.85;;;;;;;-143.98;100.00;68091.63;5054862;28;20059;-88
2021/03/11 04:57:00;;;;;;;30.63;18.48;;;;;;;-143.98;100.00;68091.63;5070604;28;20185;-88
2021/03/11 04:59:27;;;;;;;27.90;17.50;;;;;;;-143.98;100.00;68091.63;5072377;28;20051;-88
2021/03/11 05:02:03;;;;;;;31.58;18.17;;;;;;;-143.98;100.00;68091.63;5088556;28;20176;-90
2021/03/11 05:04:33;;;;;;;31.55;17.48;;;;;;;-143.98;100.00;68091.63;5074427;28;20041;-90
2021/03/11 05:07:04;;;;;;;31.30;17.17;;;;;;;-143.98;100.00;68091.63;5072784;28;20097;-91
2021/03/11 05:09:31;;;;;;;32.78;18.63;;;;;;;-143.98;100.00;68091.63;5091878;28;20042;-88
2021/03/11 05:11:57;;;;;;;26.63;16.75;;;;;;;-143.98;100.00;68091.63;5088201;28;20063;-88
2021/03/11 05:14:24;;;;;;;29.52;17.88;;;;;;;-143.98;100.00;68091.63;5126737;28;20164;-88
2021/03/11 05:16:56;;;;;;;32.03;19.25;;;;;;;-143.98;100.00;68091.63;5098390;28;20064;-89
2021/03/11 05:19:35;;;;;;;31.23;18.70;;;;;;;-143.98;100.00;68091.63;5111311;28;20182;-87
2021/03/11 05:22:02;;;;;;;31.05;18.08;;;;;;;-143.98;100.00;68091.63;5100340;28;20043;-89
2021/03/11 05:24:29;;;;;;;30.70;18.52;;;;;;;-143.98;100.00;68091.63;5098424;28;20052;-90
2021/03/11 05:27:24;;;;;;;26.27;17.35;;;;;;;-143.98;100.00;68091.63;5079169;28;20104;-89
2021/03/11 05:29:50;;;;;;;27.50;17.48;;;;;;;-143.98;100.00;68091.63;5113428;28;20054;-90
2021/03/11 05:32:17;;;;;;;26.13;16.92;;;;;;;-143.98;100.00;68091.63;5096054;28;20063;-89
2021/03/11 05:34:50;;;;;;;24.63;16.85;;;;;;;-143.98;100.00;68091.63;5093189;28;20115;-87
2021/03/11 05:37:18;;;;;;;24.77;16.27;;;;;;;-143.98;100.00;68091.63;5104460;28;20067;-87
2021/03/11 05:39:51;;;;;;;29.92;16.75;;;;;;;-143.98;100.00;68091.63;5100084;28;20051;-89
2021/03/11 05:42:19;;;;;;;23.08;14.20;;;;;;;-143.98;100.00;68091.63;5060304;28;20048;-88
2021/03/11 05:44:48;;;;;;;23.67;15.38;;;;;;;-143.98;100.00;68091.63;5073034;28;20412;-88
2021/03/11 05:47:19;;;;;;;21.77;14.00;;;;;;;-143.98;100.00;68091.63;5098013;28;20205;-86
2021/03/11 05:49:49;;;;;;;24.13;15.18;;;;;;;-143.98;100.00;68091.63;5064485;28;20052;-85
2021/03/11 05:53:44;;;;;;;;;;;;;;;;;;;;;
2021/03/11 06:01:18;;;;;;;20.00;13.25;;;;;;;-143.98;100.00;68091.63;4953029;29;20125;-84
2021/03/11 06:03:51;;;;;;;21.73;13.55;;;;;;;-143.98;100.00;68091.63;4967993;28;20454;-84
2021/03/11 06:06:19;;;;;;;21.65;14.45;;;;;;;-143.98;100.00;68091.63;5015745;28;20148;-85
2021/03/11 06:08:53;;;;;;;20.38;13.38;;;;;;;-143.98;100.00;68091.63;5016221;28;20058;-85
2021/03/11 06:11:20;;;;;;;19.77;12.93;;;;;;;-143.98;100.00;68091.63;5018757;28;20066;-84
2021/03/11 06:13:47;;;;;;;18.88;13.52;;;;;;;-143.98;100.00;68091.63;5021595;28;20185;-86
2021/03/11 06:16:36;;;;;;;19.08;12.50;;;;;;;-143.98;100.00;68091.63;5018297;28;20166;-84
2021/03/11 06:19:08;;;;;;;20.88;12.63;;;;;;;-143.98;100.00;68091.63;5022057;28;20057;-85
2021/03/11 06:21:35;;;;;;;20.10;12.73;;;;;;;-143.98;100.00;68091.63;5034562;28;20495;-85
2021/03/11 06:24:05;;;;;;;16.92;12.57;;;;;;;-143.98;100.00;68091.63;5033495;28;20052;-85
2021/03/11 06:26:41;;;;;;;17.70;12.43;;;;;;;-143.98;100.00;68091.63;5020699;28;20174;-85
2021/03/11 06:29:10;;;;;;;18.10;12.05;;;;;;;-143.98;100.00;68091.63;5092436;28;20447;-86
2021/03/11 06:31:40;;;;;;;15.60;11.02;;;;;;;-143.98;100.00;68091.63;5040147;28;20140;-85
2021/03/11 06:34:23;;;;;;;19.30;12.32;;;;;;;-143.98;100.00;68091.63;5072387;28;22145;-86
2021/03/11 06:36:49;;;;;;;19.10;12.57;;;;;;;-143.98;100.00;68091.63;5053230;28;20053;-86
2021/03/11 06:39:29;;;;;;;19.92;12.85;;;;;;;-143.98;100.00;68091.63;5018162;28;20205;-88
2021/03/11 06:41:57;;;;;;;15.60;11.52;;;;;;;-143.98;100.00;68091.63;5023568;28;20245;-87
2021/03/11 06:44:35;;;;;;;18.95;10.55;;;;;;;-143.98;100.00;68091.63;5036181;28;20080;-87
2021/03/11 06:47:07;;;;;;;21.92;12.80;;;;;;;-143.98;100.00;68091.63;5055035;28;20053;-86
2021/03/11 06:49:33;;;;;;;17.15;11.63;;;;;;;-143.98;100.00;68091.63;5035307;28;20084;-86
2021/03/11 06:52:13;;;;;;;15.93;12.10;;;;;;;-143.98;100.00;68091.63;5061822;28;20059;-86
2021/03/11 06:55:07;;;;;;;17.70;12.23;;;;;;;-143.98;100.00;68091.63;5065261;28;20061;-85
2021/03/11 06:57:41;;;;;;;15.10;12.23;;;;;;;-143.98;100.00;68091.63;5054044;28;20225;-85
2021/03/11 07:00:21;;;;;;;17.67;12.80;;;;;;;-143.98;100.00;68091.63;5085930;28;20067;-85
2021/03/11 07:02:54;;;;;;;16.98;11.45;;;;;;;-143.98;100.00;68091.63;5051583;28;20045;-85
2021/03/11 07:05:25;;;;;;;20.83;13.52;;;;;;;-143.98;100.00;68091.63;5052087;28;20115;-85
2021/03/11 07:08:13;;;;;;;18.15;13.43;;;;;;;-143.98;100.00;68091.63;5034173;28;20045;-85
2021/03/11 07:10:42;;;;;;;16.33;11.63;;;;;;;-143.98;100.00;68091.63;5049980;28;20363;-85
2021/03/11 07:13:09;;;;;;;16.38;12.07;;;;;;;-143.98;100.00;68091.63;5052756;28;20055;-82
2021/03/11 07:15:39;;;;;;;14.50;11.70;;;;;;;-143.98;100.00;68091.63;5039143;28;20132;-82
2021/03/11 07:18:10;;;;;;;17.48;12.05;;;;;;;-143.98;100.00;68091.63;5013323;28;20049;-81
2021/03/11 07:20:36;;;;;;;18.58;13.48;;;;;;;-143.98;100.00;68091.63;5032791;28;20041;-80
2021/03/11 07:23:10;;;;;;;16.08;11.93;;;;;;;-143.98;100.00;68091.63;5059645;28;20375;-81
2021/03/11 07:25:43;;;;;;;15.82;11.88;;;;;;;-143.98;100.00;68091.63;5051521;28;20052;-81
2021/03/11 07:28:29;;;;;;;15.30;11.65;;;;;;;-143.98;100.00;68091.63;5069437;28;20064;-80
2021/03/11 07:31:01;;;;;;;15.40;10.93;;;;;;;-143.98;100.00;68091.63;5068573;28;20191;-81
2021/03/11 07:33:40;;;;;;;18.02;13.13;;;;;;;-143.98;100.00;68091.63;5052628;28;20060;-81
2021/03/11 07:36:09;;;;;;;17.90;12.88;;;;;;;-143.98;100.00;68091.63;5068194;28;20040;-81
2021/03/11 07:38:38;;;;;;;18.25;13.00;;;;;;;-143.98;100.00;68091.63;5069979;28;20109;-81
2021/03/11 07:41:09;;;;;;;21.17;13.65;;;;;;;-143.98;100.00;68091.63;5049042;28;20061;-81
2021/03/11 07:43:39;;;;;;;19.17;13.73;;;;;;;-143.98;100.00;68091.63;5049040;28;20040;-81
2021/03/11 07:46:13;;;;;;;19.20;13.60;;;;;;;-143.98;100.00;68091.63;5080845;28;20053;-81
2021/03/11 07:48:44;;;;;;;21.35;14.20;;;;;;;-143.98;100.00;68091.63;5048050;28;20102;-81
2021/03/11 07:51:22;;;;;;;19.33;13.18;;;;;;;-143.98;100.00;68091.63;5035323;28;20114;-80
2021/03/11 07:53:48;;;;;;;18.38;13.07;;;;;;;-143.98;100.00;68091.63;5048875;28;20060;-81
2021/03/11 07:56:16;;;;;;;20.25;14.70;;;;;;;-143.98;100.00;68091.63;5048670;28;20085;-81
2021/03/11 07:58:44;;;;;;;20.65;14.52;;;;;;;-143.98;100.00;68091.63;5032880;28;20053;-81
2021/03/11 08:01:20;;;;;;;18.13;13.38;;;;;;;-143.98;100.00;68091.63;5033738;28;20402;-81
2021/03/11 08:03:48;;;;;;;19.52;13.30;;;;;;;-143.98;100.00;68091.63;5065312;28;20052;-81
2021/03/11 08:06:22;;;;;;;19.98;14.82;;;;;;;-143.98;100.00;68091.63;5059008;28;20183;-80
2021/03/11 08:08:58;;;;;;;22.05;13.25;;;;;;;-143.98;100.00;68091.63;5069307;28;20122;-80
2021/03/11 08:11:34;;;;;;;;;;;;;;;-143.98;100.00;68091.63;5056951;28;20049;-81
2021/03/11 08:14:19;;;;;;;21.23;14.13;;;;;;;-143.98;100.00;68091.63;5070928;28;19928;-81
2021/03/11 08:16:52;;;;;;;18.65;12.82;;;;;;;-143.98;100.00;68091.63;5069094;28;20133;-80
2021/03/11 08:19:34;;;;;;;19.30;13.57;;;;;;;-143.98;100.00;68091.63;5053006;28;20050;-81
2021/03/11 08:22:04;;;;;;;16.33;11.82;;;;;;;-143.98;100.00;68091.63;5070456;28;20070;-82
2021/03/11 08:24:45;;;;;;;13.35;9.57;;;;;;;-143.98;100.00;68091.63;5101372;28;20114;-80
2021/03/11 08:27:30;;;;;;;18.98;10.57;;;;;;;-143.98;100.00;68091.63;5102815;28;20078;-80
2021/03/11 08:29:59;;;;;;;15.13;9.93;;;;;;;-143.98;100.00;68091.63;5069557;28;20135;-81
2021/03/11 08:32:48;;;;;;;16.73;10.10;;;;;;;-143.98;100.00;68091.63;5069346;28;20053;-80
2021/03/11 08:35:37;;;;;;;14.38;9.18;;;;;;;-143.98;100.00;68091.63;5052776;28;20331;-80
2021/03/11 08:38:19;;;;;;;16.48;10.13;;;;;;;-143.98;100.00;68091.63;5053265;28;20475;-80
2021/03/11 08:41:05;;;;;;;15.07;9.52;;;;;;;-143.98;100.00;68091.63;5076942;28;20179;-81
2021/03/11 08:43:40;;;;;;;12.73;9.10;;;;;;;-143.98;100.00;68091.63;5077849;28;20049;-80
2021/03/11 08:46:17;;;;;;;10.68;7.75;;;;;;;-143.98;100.00;68091.63;5073005;28;20040;-81
2021/03/11 08:49:00;;;;;;;11.77;8.63;;;;;;;-143.98;100.00;68091.63;5057866;28;20166;-82
2021/03/11 08:51:30;;;;;;;12.07;7.25;;;;;;;-143.98;100.00;68091.63;5097839;28;20099;-82
2021/03/11 08:53:58;;;;;;;11.07;7.40;;;;;;;-143.98;100.00;68091.63;5080680;28;20098;-81
2021/03/11 08:56:34;;;;;;;14.75;8.13;;;;;;;-143.98;100.00;68091.63;5069243;28;20237;-80
2021/03/11 08:59:09;;;;;;;13.45;7.28;;;;;;;-143.98;100.00;68091.63;5069879;28;20044;-80
2021/03/11 09:01:53;;;;;;;11.13;7.50;;;;;;;-143.98;100.00;68091.63;5065268;28;20044;-82
2021/03/11 09:04:33;;;;;;;11.82;7.90;;;;;;;-143.98;100.00;68091.63;5065977;28;20549;-81
2021/03/11 09:07:07;;;;;;;13.73;6.80;;;;;;;-143.98;100.00;68091.63;5096624;28;20438;-81
2021/03/11 09:09:42;;;;;;;12.93;6.50;;;;;;;-143.98;100.00;68091.63;5101416;28;20056;-81
2021/03/11 09:12:32;;;;;;;10.73;6.13;;;;;;;-143.98;100.00;68091.63;5069998;28;20287;-81
2021/03/11 09:15:00;;;;;;;9.27;6.00;;;;;;;-143.98;100.00;68091.63;5050673;28;20124;-80
2021/03/11 09:17:36;;;;;;;12.73;6.28;;;;;;;-143.98;100.00;68091.63;5069605;28;20071;-81
2021/03/11 09:20:08;;;;;;;10.43;5.82;;;;;;;-143.98;100.00;68091.63;5050039;28;20308;-82
2021/03/11 09:22:38;;;;;;;9.93;5.03;;;;;;;-143.98;100.00;68091.63;5048255;28;20061;-81
2021/03/11 09:25:17;;;;;;;9.43;4.50;;;;;;;-143.98;100.00;68091.63;5040522;28;20048;-82
2021/03/11 09:27:55;;;;;;;11.73;4.35;;;;;;;-143.98;100.00;68091.63;5025196;28;20079;-81
2021/03/11 09:30:41;;;;;;;11.57;4.93;;;;;;;-143.98;100.00;68091.63;5059269;28;20048;-82
2021/03/11 09:33:20;;;;;;;7.90;3.90;;;;;;;-143.98;100.00;68091.63;5056774;28;20132;-82
2021/03/11 09:35:47;;;;;;;9.55;4.50;;;;;;;-143.98;100.00;68091.63;5027157;28;20079;-80
2021/03/11 09:38:24;;;;;;;8.32;3.47;;;;;;;-143.98;100.00;68091.63;5044054;28;20057;-81
2021/03/11 09:40:56;;;;;;;13.50;3.72;;;;;;;-143.98;100.00;68091.63;5056675;28;20087;-80
2021/03/11 09:43:27;;;;;;;7.13;3.35;;;;;;;-143.98;100.00;68091.63;5045595;28;20112;-80
2021/03/11 09:46:11;;;;;;;7.35;4.13;;;;;;;-143.98;100.00;68091.63;5052754;28;20080;-80
2021/03/11 09:48:42;;;;;;;9.45;3.95;;;;;;;-143.98;100.00;68091.63;5062673;28;20057;-80
2021/03/11 09:51:20;;;;;;;13.60;3.95;;;;;;;-143.98;100.00;68091.63;5058675;28;20041;-80
2021/03/11 09:53:55;;;;;;;8.10;4.25;;;;;;;-143.98;100.00;68091.63;5050700;28;20413;-80
2021/03/11 09:56:29;;;;;;;10.15;3.08;;;;;;;-143.98;100.00;68091.63;5050595;28;20044;-79
2021/03/11 09:59:02;;;;;;;13.77;3.05;;;;;;;-143.98;100.00;68091.63;5054134;28;20525;-80
2021/03/11 10:01:38;;;;;;;11.73;3.65;;;;;;;-143.98;100.00;68091.63;5051729;28;20059;-80
2021/03/11 10:04:28;;;;;;;11.77;3.88;;;;;;;-143.98;100.00;68091.63;5029854;28;20049;-82
2021/03/11 10:07:00;;;;;;;11.05;5.38;;;;;;;-143.98;100.00;68091.63;5044405;28;20218;-81
2021/03/11 10:10:21;;;;;;;12.05;5.18;;;;;;;-143.98;100.00;68091.63;5045382;28;20045;-82
2021/03/11 10:12:50;;;;;;;12.07;4.60;;;;;;;-143.98;100.00;68091.63;4979616;28;20445;-82
2021/03/11 10:15:19;;;;;;;17.55;5.68;;;;;;;-143.98;100.00;68091.63;5004960;28;20112;-83
2021/03/11 10:17:48;;;;;;;20.80;4.93;;;;;;;-143.98;100.00;68091.63;5025391;28;20229;-82
2021/03/11 10:20:24;;;;;;;15.07;3.40;;;;;;;-143.98;100.00;68091.63;5035523;28;20045;-82
2021/03/11 10:23:16;;;;;;;12.27;3.60;;;;;;;-143.98;100.00;68091.63;5057937;28;20423;-84
2021/03/11 10:25:45;;;;;;;14.73;5.60;;;;;;;-143.98;100.00;68091.63;5075388;28;20055;-85
2021/03/11 10:28:13;;;;;;;13.48;4.10;;;;;;;-143.98;100.00;68091.63;5046527;28;20041;-82
2021/03/11 10:30:45;;;;;;;11.13;4.05;;;;;;;-143.98;100.00;68091.63;5045585;28;20040;-81
2021/03/11 10:33:15;;;;;;;13.10;4.53;;;;;;;-143.98;100.00;68091.63;5080317;28;20110;-80
2021/03/11 10:35:43;;;;;;;7.38;3.45;;;;;;;-143.98;100.00;68091.63;5069132;28;20256;-81
2021/03/11 10:38:20;;;;;;;11.02;3.80;;;;;;;-143.98;100.00;68091.63;5069247;28;20439;-80
2021/03/11 10:40:50;;;;;;;14.85;4.15;;;;;;;-143.98;100.00;68091.63;5050525;28;20169;-80
2021/03/11 10:43:25;;;;;;;12.35;3.58;;;;;;;-143.98;100.00;68091.63;5068265;28;20195;-80
2021/03/11 10:45:51;;;;;;;9.88;3.85;;;;;;;-143.98;100.00;68091.63;5063827;28;20040;-80
2021/03/11 10:48:18;;;;;;;8.85;2.95;;;;;;;-143.98;100.00;68091.63;5042701;28;20052;-80
2021/03/11 10:50:52;;;;;;;14.35;3.25;;;;;;;-143.98;100.00;68091.63;5082876;28;20262;-82
2021/03/11 10:53:20;;;;;;;10.50;2.88;;;;;;;-143.98;100.00;68091.63;5047316;28;20059;-83
2021/03/11 10:56:11;;;;;;;10.27;2.45;;;;;;;-143.98;100.00;68091.63;5071260;28;20054;-83
2021/03/11 10:58:40;;;;;;;12.23;2.80;;;;;;;-143.98;100.00;68091.63;5072023;28;20045;-83
2021/03/11 11:01:31;;;;;;;9.25;3.00;;;;;;;-143.98;100.00;68091.63;5077455;28;20028;-85
2021/03/11 11:04:01;;;;;;;8.85;2.95;;;;;;;-143.98;100.00;68091.63;5102438;28;20096;-84
2021/03/11 11:06:31;;;;;;;10.02;3.00;;;;;;;-143.98;100.00;68091.63;5070891;28;20114;-84
2021/03/11 11:08:58;;;;;;;12.23;2.60;;;;;;;-143.98;100.00;68091.63;5081677;28;20160;-83
2021/03/11 11:11:24;;;;;;;13.95;3.33;;;;;;;-143.98;100.00;68091.63;5069112;28;20482;-82
2021/03/11 11:13:51;;;;;;;14.98;2.70;;;;;;;-143.98;100.00;68091.63;5069329;28;20059;-81
2021/03/11 11:16:19;;;;;;;18.60;3.20;;;;;;;-143.98;100.00;68091.63;5064171;28;20336;-81
2021/03/11 11:18:45;;;;;;;13.60;3.45;;;;;;;-143.98;100.00;68091.63;5084736;28;20056;-80
2021/03/11 11:21:12;;;;;;;15.95;3.38;;;;;;;-143.98;100.00;68091.63;5050220;28;20254;-80
2021/03/11 11:23:42;;;;;;;13.68;3.13;;;;;;;-143.98;100.00;68091.63;5052138;28;20135;-80
2021/03/11 11:26:10;;;;;;;17.75;4.13;;;;;;;-143.98;100.00;68091.63;5054326;28;20222;-81
2021/03/11 11:28:43;;;;;;;18.05;3.63;;;;;;;-143.98;100.00;68091.63;5050686;28;20181;-83